Time;durP1;ratioP1;P1;durP2;ratioP2;P2;SDS_P1;SDS_P2;PMS_P1;PMS_P2;Temp;Humidity;BMP_temperature;BMP_pressure;BME280_temperature;BME280_humidity;BME280_pressure;Samples;Min_cycle;Max_cycle;Signal;HPM_P1;HPM_P2
2022/01/09 00:00:04;;;;;;;6.80;2.00;;;3.50;99.90;;;;;;4940818;29;20090;-80
2022/01/09 00:02:30;;;;;;;3.88;1.85;;;3.50;99.90;;;;;;4941943;28;20031;-80
2022/01/09 00:04:55;;;;;;;3.08;1.77;;;3.50;99.90;;;;;;4941713;28;20090;-79
2022/01/09 00:07:21;;;;;;;2.38;1.55;;;3.50;99.90;;;;;;4942054;29;20389;-80
2022/01/09 00:09:46;;;;;;;2.10;0.93;;;3.50;99.90;;;;;;4941728;29;20024;-80
2022/01/09 00:12:12;;;;;;;2.05;1.40;;;3.50;99.90;;;;;;4941214;28;20024;-81
2022/01/09 00:14:38;;;;;;;6.32;1.30;;;3.50;99.90;;;;;;4941991;28;20024;-79
2022/01/09 00:17:04;;;;;;;4.95;1.40;;;3.50;99.90;;;;;;4940478;28;20046;-81
2022/01/09 00:19:29;;;;;;;1.75;1.30;;;3.50;99.90;;;;;;4941373;29;20027;-81
2022/01/09 00:21:55;;;;;;;4.30;2.60;;;3.60;99.90;;;;;;4941068;28;20036;-80
2022/01/09 00:24:21;;;;;;;2.63;1.90;;;3.60;99.90;;;;;;4941747;28;20061;-81
2022/01/09 00:26:46;;;;;;;3.25;1.63;;;3.60;99.90;;;;;;4941947;28;20085;-80
2022/01/09 00:29:12;;;;;;;3.42;1.27;;;3.70;99.90;;;;;;4940760;28;20093;-81
2022/01/09 00:31:37;;;;;;;2.15;1.27;;;3.70;99.90;;;;;;4941863;28;20031;-80
2022/01/09 00:34:03;;;;;;;2.88;1.45;;;3.80;99.90;;;;;;4940455;29;20111;-81
2022/01/09 00:36:30;;;;;;;6.10;1.70;;;3.80;99.90;;;;;;4941910;29;20464;-81
2022/01/09 00:38:56;;;;;;;2.97;0.80;;;3.90;99.90;;;;;;4941303;29;20035;-81
2022/01/09 00:41:22;;;;;;;1.42;1.08;;;3.90;99.90;;;;;;4942227;29;20346;-81
2022/01/09 00:43:47;;;;;;;1.95;0.85;;;4.00;99.90;;;;;;4940727;28;20043;-82
2022/01/09 00:46:13;;;;;;;4.05;1.42;;;4.00;99.90;;;;;;4941762;29;20023;-81
2022/01/09 00:48:38;;;;;;;1.92;1.25;;;4.00;99.90;;;;;;4940653;28;20902;-80
2022/01/09 00:51:03;;;;;;;3.00;1.55;;;4.00;99.90;;;;;;4940663;29;20027;-81
2022/01/09 00:53:29;;;;;;;2.83;1.35;;;4.00;99.90;;;;;;4941341;28;20059;-81
2022/01/09 00:55:54;;;;;;;3.25;1.02;;;3.90;99.90;;;;;;4941857;29;20027;-82
2022/01/09 00:58:20;;;;;;;3.03;1.00;;;3.90;99.90;;;;;;4940484;28;20467;-81
2022/01/09 01:00:46;;;;;;;2.60;1.42;;;3.80;99.90;;;;;;4940882;29;20031;-81
2022/01/09 01:03:11;;;;;;;2.55;1.20;;;3.80;99.90;;;;;;4941154;28;20484;-81
2022/01/09 01:05:37;;;;;;;7.03;2.85;;;3.80;99.90;;;;;;4939772;28;20488;-81
2022/01/09 01:08:03;;;;;;;2.50;1.50;;;3.70;99.90;;;;;;4939885;28;20095;-80
2022/01/09 01:10:29;;;;;;;;;;;3.70;99.90;;;;;;4941172;29;20077;-80
2022/01/09 01:12:54;;;;;;;2.08;0.80;;;3.70;99.90;;;;;;4940224;28;20291;-80
2022/01/09 01:15:20;;;;;;;5.10;1.10;;;3.70;99.90;;;;;;4941323;28;20031;-80
2022/01/09 01:17:45;;;;;;;5.18;1.20;;;3.70;99.90;;;;;;4940291;28;20055;-81
2022/01/09 01:20:12;;;;;;;5.15;2.13;;;3.60;99.90;;;;;;4940726;28;20038;-81
2022/01/09 01:22:39;;;;;;;4.60;1.42;;;3.70;99.90;;;;;;4940124;28;20031;-80
2022/01/09 01:25:06;;;;;;;7.03;1.30;;;3.60;99.90;;;;;;4940760;29;20023;-81
2022/01/09 01:27:31;;;;;;;1.85;1.02;;;3.70;99.90;;;;;;4940060;29;20035;-80
2022/01/09 01:29:57;;;;;;;2.60;1.08;;;3.70;99.90;;;;;;4940148;29;20035;-80
2022/01/09 01:32:24;;;;;;;3.13;1.38;;;3.70;99.90;;;;;;4940768;29;20020;-81
2022/01/09 01:34:50;;;;;;;2.78;1.33;;;3.60;99.90;;;;;;4939595;28;20050;-80
2022/01/09 01:37:16;;;;;;;2.15;1.35;;;3.60;99.90;;;;;;4941003;29;20027;-80
2022/01/09 01:39:41;;;;;;;2.15;1.10;;;3.60;99.90;;;;;;4939635;28;20023;-80
2022/01/09 01:42:07;;;;;;;1.80;1.42;;;3.60;99.90;;;;;;4939403;28;20094;-80
2022/01/09 01:44:40;;;;;;;2.40;1.20;;;3.60;99.90;;;;;;4941319;28;20051;-79
2022/01/09 01:47:06;;;;;;;3.88;1.38;;;3.60;99.90;;;;;;4940408;29;20031;-80
2022/01/09 01:49:32;;;;;;;2.78;1.20;;;3.60;99.90;;;;;;4940690;28;20499;-80
2022/01/09 01:51:58;;;;;;;5.43;1.45;;;3.50;99.90;;;;;;4940805;28;20448;-80
2022/01/09 01:54:25;;;;;;;;;;;3.50;99.90;;;;;;4941506;29;20024;-80
2022/01/09 01:56:50;;;;;;;2.65;1.52;;;3.50;99.90;;;;;;4938905;28;19914;-80
2022/01/09 01:59:16;;;;;;;3.25;2.42;;;3.40;99.90;;;;;;4939948;29;20382;-80
2022/01/09 02:01:41;;;;;;;2.05;1.00;;;3.40;99.90;;;;;;4940572;29;20500;-80
2022/01/09 02:04:07;;;;;;;2.33;1.10;;;3.40;99.90;;;;;;4940449;28;20035;-80
2022/01/09 02:06:34;;;;;;;1.15;1.05;;;3.40;99.90;;;;;;4940486;28;20262;-80
2022/01/09 02:09:00;;;;;;;2.15;1.83;;;3.50;99.90;;;;;;4940071;29;20449;-80
2022/01/09 02:11:25;;;;;;;0.98;0.45;;;3.50;99.90;;;;;;4940349;28;20066;-80
2022/01/09 02:13:51;;;;;;;1.83;1.17;;;3.60;99.90;;;;;;4938686;28;20036;-80
2022/01/09 02:16:18;;;;;;;1.50;1.10;;;3.60;99.90;;;;;;4940327;28;20404;-80
2022/01/09 02:18:46;;;;;;;1.17;0.50;;;3.60;99.90;;;;;;4939873;29;20023;-80
2022/01/09 02:21:13;;;;;;;1.58;0.77;;;3.70;99.90;;;;;;4940082;29;20023;-80
2022/01/09 02:23:41;;;;;;;1.30;0.90;;;3.80;99.90;;;;;;4939929;29;20035;-80
2022/01/09 02:26:07;;;;;;;4.05;0.75;;;3.90;99.90;;;;;;4940195;29;20568;-80
2022/01/09 02:28:33;;;;;;;1.95;0.98;;;3.90;99.90;;;;;;4938934;28;20499;-80
2022/01/09 02:30:59;;;;;;;2.05;1.00;;;4.00;99.90;;;;;;4938772;29;20131;-80
2022/01/09 02:33:24;;;;;;;2.17;0.70;;;4.00;99.90;;;;;;4939580;28;20306;-80
2022/01/09 02:35:51;;;;;;;1.90;0.93;;;4.10;99.90;;;;;;4939500;28;20042;-80
2022/01/09 02:38:18;;;;;;;1.00;0.73;;;4.10;99.90;;;;;;4939873;28;20112;-80
2022/01/09 02:40:48;;;;;;;0.80;0.60;;;4.10;99.90;;;;;;4939491;28;20035;-80
2022/01/09 02:43:13;;;;;;;1.25;0.70;;;4.10;99.90;;;;;;4939515;29;20039;-80
2022/01/09 02:45:39;;;;;;;3.47;1.50;;;4.10;99.90;;;;;;4941434;28;20043;-80
2022/01/09 02:48:05;;;;;;;2.83;1.08;;;4.00;99.90;;;;;;4942751;29;20115;-80
2022/01/09 02:50:36;;;;;;;1.70;0.85;;;4.00;99.90;;;;;;4944522;28;20563;-80
2022/01/09 02:53:12;;;;;;;4.20;1.00;;;3.90;99.90;;;;;;4943479;28;20098;-80
2022/01/09 02:55:38;;;;;;;2.38;1.52;;;3.90;99.90;;;;;;4943850;28;20035;-80
2022/01/09 02:58:04;;;;;;;4.25;1.35;;;3.90;99.90;;;;;;4943189;28;20095;-80
2022/01/09 03:00:33;;;;;;;1.05;0.63;;;4.00;99.90;;;;;;4943863;28;20069;-80
2022/01/09 03:02:59;;;;;;;4.07;0.60;;;4.00;99.90;;;;;;4942504;29;20506;-80
2022/01/09 03:05:25;;;;;;;;;;;4.00;99.90;;;;;;4944362;28;20031;-81
2022/01/09 03:07:51;;;;;;;3.00;0.82;;;4.00;99.90;;;;;;4942815;28;20359;-80
2022/01/09 03:10:18;;;;;;;1.70;0.70;;;4.00;99.90;;;;;;4943476;29;20035;-81
2022/01/09 03:12:45;;;;;;;6.05;1.90;;;3.90;99.90;;;;;;4942748;29;20023;-81
2022/01/09 03:15:11;;;;;;;1.45;0.80;;;4.00;99.90;;;;;;4943294;29;20090;-81
2022/01/09 03:17:38;;;;;;;3.30;0.80;;;4.00;99.90;;;;;;4943328;28;20046;-81
2022/01/09 03:20:05;;;;;;;1.20;0.73;;;4.00;99.90;;;;;;4942355;29;20046;-81
2022/01/09 03:22:31;;;;;;;1.48;0.60;;;4.00;99.90;;;;;;4943522;29;20157;-81
2022/01/09 03:24:57;;;;;;;1.10;0.70;;;4.00;99.90;;;;;;4943115;29;20122;-81
2022/01/09 03:27:22;;;;;;;1.73;0.90;;;4.00;99.90;;;;;;4942324;29;20031;-81
2022/01/09 03:29:48;;;;;;;1.85;0.75;;;4.00;99.90;;;;;;4942657;29;20047;-81
2022/01/09 03:32:13;;;;;;;3.63;0.98;;;4.00;99.90;;;;;;4942790;28;20023;-81
2022/01/09 03:34:39;;;;;;;2.90;0.90;;;4.00;99.90;;;;;;4943319;28;20544;-81
2022/01/09 03:37:05;;;;;;;0.57;0.38;;;4.00;99.90;;;;;;4941370;29;20575;-81
2022/01/09 03:39:31;;;;;;;0.98;0.43;;;4.00;99.90;;;;;;4942807;28;20146;-81
2022/01/09 03:41:58;;;;;;;2.65;0.82;;;4.00;99.90;;;;;;4942032;28;20119;-81
2022/01/09 03:44:27;;;;;;;0.82;0.43;;;4.00;99.90;;;;;;4942904;29;20464;-81
2022/01/09 03:46:54;;;;;;;1.27;0.70;;;3.90;99.90;;;;;;4942473;29;20035;-81
2022/01/09 03:49:20;;;;;;;2.13;0.85;;;3.90;99.90;;;;;;4942712;28;20032;-81
2022/01/09 03:51:50;;;;;;;0.82;0.52;;;3.90;99.90;;;;;;4942305;29;20027;-81
2022/01/09 03:54:16;;;;;;;1.52;0.60;;;3.80;99.90;;;;;;4941713;28;20115;-81
2022/01/09 03:56:41;;;;;;;2.13;1.20;;;3.80;99.90;;;;;;4941432;28;20110;-81
2022/01/09 03:59:07;;;;;;;2.33;0.95;;;3.70;99.90;;;;;;4942009;28;20055;-81
2022/01/09 04:01:32;;;;;;;1.70;0.90;;;3.70;99.90;;;;;;4942581;29;20031;-81
2022/01/09 04:03:57;;;;;;;1.35;1.02;;;3.70;99.90;;;;;;4941769;28;20488;-81
2022/01/09 04:06:24;;;;;;;2.63;0.70;;;3.70;99.90;;;;;;4942860;28;20031;-81
2022/01/09 04:08:51;;;;;;;4.13;2.35;;;3.60;99.90;;;;;;4942297;28;20030;-81
2022/01/09 04:11:26;;;;;;;2.50;0.90;;;3.60;99.90;;;;;;4941293;28;20117;-81
2022/01/09 04:13:53;;;;;;;1.38;0.70;;;3.60;99.90;;;;;;4941585;29;20028;-81
2022/01/09 04:16:18;;;;;;;;;;;3.60;99.90;;;;;;4943135;29;20361;-81
2022/01/09 04:18:44;;;;;;;1.73;0.90;;;3.60;99.90;;;;;;4941970;28;20382;-81
2022/01/09 04:21:09;;;;;;;2.42;1.00;;;3.60;99.90;;;;;;4942496;29;20059;-81
2022/01/09 04:23:35;;;;;;;1.48;0.60;;;3.60;99.90;;;;;;4942483;29;20118;-80
2022/01/09 04:26:00;;;;;;;1.73;0.73;;;3.60;99.90;;;;;;4941839;29;20039;-81
2022/01/09 04:28:26;;;;;;;1.90;0.80;;;3.60;99.90;;;;;;4940985;28;20507;-81
2022/01/09 04:30:51;;;;;;;2.60;0.98;;;3.60;99.90;;;;;;4942980;28;20040;-81
2022/01/09 04:33:17;;;;;;;1.83;0.70;;;3.60;99.90;;;;;;4942447;29;20492;-81
2022/01/09 04:35:42;;;;;;;2.70;1.05;;;3.60;99.90;;;;;;4942183;29;20130;-80
2022/01/09 04:38:08;;;;;;;1.20;0.70;;;3.60;99.90;;;;;;4941332;28;20051;-81
2022/01/09 04:40:35;;;;;;;2.45;0.70;;;3.60;99.90;;;;;;4942195;28;20030;-81
2022/01/09 04:43:03;;;;;;;1.13;0.73;;;3.60;99.90;;;;;;4940096;29;20043;-81
2022/01/09 04:45:29;;;;;;;1.13;0.90;;;3.60;99.90;;;;;;4941824;29;20024;-80
2022/01/09 04:48:00;;;;;;;3.42;0.55;;;3.60;99.90;;;;;;4941456;28;20039;-81
2022/01/09 04:50:29;;;;;;;2.10;1.08;;;3.60;99.90;;;;;;4941289;29;20504;-81
2022/01/09 04:53:04;;;;;;;3.80;0.70;;;3.50;99.90;;;;;;4941576;29;20391;-81
2022/01/09 04:55:31;;;;;;;3.53;0.75;;;3.50;99.90;;;;;;4942029;28;20050;-81
2022/01/09 04:57:57;;;;;;;2.22;1.02;;;3.60;99.90;;;;;;4940393;28;20035;-80
2022/01/09 05:00:23;;;;;;;;;;;3.60;99.90;;;;;;4941391;29;20397;-80
2022/01/09 05:02:49;;;;;;;1.38;0.50;;;3.60;99.90;;;;;;4940915;28;20086;-80
2022/01/09 05:05:15;;;;;;;1.45;0.88;;;3.60;99.90;;;;;;4941886;28;20388;-80
2022/01/09 05:07:41;;;;;;;3.55;1.15;;;3.60;99.90;;;;;;4940525;28;20114;-80
2022/01/09 05:10:09;;;;;;;1.30;0.57;;;3.60;99.90;;;;;;4941307;28;20162;-80
2022/01/09 05:12:35;;;;;;;3.70;1.23;;;3.60;99.90;;;;;;4940978;29;20568;-80
2022/01/09 05:15:04;;;;;;;1.95;0.82;;;3.60;99.90;;;;;;4940107;28;20035;-80
2022/01/09 05:17:30;;;;;;;0.85;0.65;;;3.60;99.90;;;;;;4941659;28;20050;-80
2022/01/09 05:19:59;;;;;;;;;;;3.50;99.90;;;;;;4941578;29;20189;-80
2022/01/09 05:22:26;;;;;;;1.73;0.55;;;3.50;99.90;;;;;;4942673;28;20390;-80
2022/01/09 05:24:52;;;;;;;3.50;1.85;;;3.50;99.90;;;;;;4942796;28;20459;-80
2022/01/09 05:27:18;;;;;;;3.08;1.38;;;3.60;99.90;;;;;;4941975;29;20038;-80
2022/01/09 05:29:43;;;;;;;2.72;1.27;;;3.60;99.90;;;;;;4942390;29;20023;-80
2022/01/09 05:32:09;;;;;;;1.20;1.05;;;3.60;99.90;;;;;;4941038;29;20130;-81
2022/01/09 05:34:35;;;;;;;2.88;1.35;;;3.60;99.90;;;;;;4943179;28;20078;-82
2022/01/09 05:37:00;;;;;;;1.10;0.63;;;3.50;99.90;;;;;;4943375;28;20033;-82
2022/01/09 05:39:26;;;;;;;1.08;0.57;;;3.50;99.90;;;;;;4943997;28;20122;-82
2022/01/09 05:41:51;;;;;;;1.85;0.90;;;3.50;99.90;;;;;;4943111;29;20049;-82
2022/01/09 05:44:18;;;;;;;1.90;1.15;;;3.50;99.90;;;;;;4943296;28;20579;-82
2022/01/09 05:46:44;;;;;;;1.90;0.90;;;3.50;99.90;;;;;;4943126;29;20028;-82
2022/01/09 05:49:09;;;;;;;1.77;0.77;;;3.60;99.90;;;;;;4942798;28;20385;-82
2022/01/09 05:51:35;;;;;;;1.65;0.98;;;3.50;99.90;;;;;;4945510;28;20434;-83
2022/01/09 05:54:01;;;;;;;1.48;1.00;;;3.60;99.90;;;;;;4944816;28;20047;-83
2022/01/09 05:56:26;;;;;;;3.03;0.85;;;3.60;99.90;;;;;;4945539;29;20444;-82
2022/01/09 05:58:52;;;;;;;1.85;0.93;;;3.60;99.90;;;;;;4943136;29;20063;-83
2022/01/09 06:01:17;;;;;;;3.03;1.20;;;3.60;99.90;;;;;;4944314;29;20067;-82
2022/01/09 06:03:43;;;;;;;2.97;1.45;;;3.60;99.90;;;;;;4942812;28;20035;-82
2022/01/09 06:06:08;;;;;;;2.88;1.52;;;3.60;99.90;;;;;;4942565;29;20031;-83
2022/01/09 06:08:34;;;;;;;2.67;1.45;;;3.50;99.90;;;;;;4940671;29;20453;-83
2022/01/09 06:10:59;;;;;;;2.38;1.65;;;3.50;99.90;;;;;;4940651;29;20032;-82
2022/01/09 06:13:25;;;;;;;1.13;0.95;;;3.50;99.90;;;;;;4940394;28;20020;-83
2022/01/09 06:15:50;;;;;;;2.90;0.80;;;3.50;99.90;;;;;;4940072;29;20122;-82
2022/01/09 06:18:20;;;;;;;2.00;1.10;;;3.50;99.90;;;;;;4940649;29;20094;-82
2022/01/09 06:20:46;;;;;;;2.75;1.38;;;3.40;99.90;;;;;;4942046;29;20170;-82
2022/01/09 06:23:12;;;;;;;2.35;1.20;;;3.40;99.90;;;;;;4944241;29;20030;-83
2022/01/09 06:25:37;;;;;;;2.70;1.38;;;3.40;99.90;;;;;;4945090;28;20019;-83
2022/01/09 06:28:03;;;;;;;1.58;1.20;;;3.40;99.90;;;;;;4943475;29;20480;-83
2022/01/09 06:30:28;;;;;;;2.10;1.15;;;3.30;99.90;;;;;;4944615;28;20138;-83
2022/01/09 06:32:54;;;;;;;1.90;1.25;;;3.30;99.90;;;;;;4944127;28;20032;-83
2022/01/09 06:35:19;;;;;;;2.72;1.73;;;3.30;99.90;;;;;;4944521;29;20019;-83
2022/01/09 06:37:45;;;;;;;1.40;1.17;;;3.30;99.90;;;;;;4944072;28;20115;-83
2022/01/09 06:40:11;;;;;;;2.67;0.90;;;3.40;99.90;;;;;;4944501;29;20365;-83
2022/01/09 06:42:38;;;;;;;6.55;2.72;;;3.40;99.90;;;;;;4943400;28;20042;-83
2022/01/09 06:45:04;;;;;;;2.67;1.48;;;3.40;99.90;;;;;;4944403;29;20027;-83
2022/01/09 06:47:29;;;;;;;;;;;3.50;99.90;;;;;;4945296;29;20027;-83
2022/01/09 06:49:55;;;;;;;10.50;5.70;;;3.50;99.90;;;;;;4944680;28;19921;-83
2022/01/09 06:52:20;;;;;;;11.88;6.72;;;3.50;99.90;;;;;;4945159;28;20361;-83
2022/01/09 06:54:46;;;;;;;10.55;5.72;;;3.40;99.90;;;;;;4945177;28;20032;-83
2022/01/09 06:57:11;;;;;;;4.63;2.65;;;3.50;99.90;;;;;;4942783;29;20027;-83
2022/01/09 06:59:37;;;;;;;3.97;1.17;;;3.40;99.90;;;;;;4944130;28;20041;-83
2022/01/09 07:02:02;;;;;;;3.88;1.70;;;3.40;99.90;;;;;;4944608;28;20353;-82
2022/01/09 07:04:28;;;;;;;2.75;1.48;;;3.40;99.90;;;;;;4944068;29;20040;-82
2022/01/09 07:06:53;;;;;;;2.10;0.98;;;3.30;99.90;;;;;;4943837;29;20024;-82
2022/01/09 07:09:19;;;;;;;2.28;1.40;;;3.30;99.90;;;;;;4943692;28;20046;-82
2022/01/09 07:11:45;;;;;;;1.77;1.02;;;3.20;99.90;;;;;;4942352;29;20031;-82
2022/01/09 07:14:10;;;;;;;3.30;1.38;;;3.20;99.90;;;;;;4942411;29;20436;-82
2022/01/09 07:16:36;;;;;;;3.65;1.38;;;3.10;99.90;;;;;;4943239;28;20031;-83
2022/01/09 07:19:01;;;;;;;3.33;1.63;;;3.10;99.90;;;;;;4943077;28;20098;-83
2022/01/09 07:21:27;;;;;;;2.25;1.48;;;3.20;99.90;;;;;;4943198;29;20027;-83
2022/01/09 07:23:52;;;;;;;1.98;1.00;;;3.20;99.90;;;;;;4942900;28;20186;-83
2022/01/09 07:26:18;;;;;;;3.78;1.75;;;3.10;99.90;;;;;;4943240;29;20534;-83
2022/01/09 07:28:44;;;;;;;1.52;1.10;;;3.10;99.90;;;;;;4941117;28;20027;-82
2022/01/09 07:31:09;;;;;;;4.47;2.55;;;3.20;99.90;;;;;;4941907;28;20024;-83
2022/01/09 07:33:35;;;;;;;7.10;3.50;;;3.20;99.90;;;;;;4943010;28;20023;-82
2022/01/09 07:36:00;;;;;;;8.00;4.80;;;3.20;99.90;;;;;;4942387;28;20123;-82
2022/01/09 07:38:26;;;;;;;6.18;3.28;;;3.30;99.90;;;;;;4943401;28;20110;-83
2022/01/09 07:40:51;;;;;;;3.90;2.28;;;3.30;99.90;;;;;;4942443;29;20027;-82
2022/01/09 07:43:18;;;;;;;3.05;1.58;;;3.30;99.90;;;;;;4941731;29;20031;-82
2022/01/09 07:45:43;;;;;;;5.25;2.20;;;3.30;99.90;;;;;;4942107;28;20033;-83
2022/01/09 07:48:09;;;;;;;2.05;1.73;;;3.40;99.90;;;;;;4943846;29;20031;-82
2022/01/09 07:50:34;;;;;;;3.38;1.20;;;3.40;99.90;;;;;;4943001;29;20031;-83
2022/01/09 07:53:00;;;;;;;3.83;1.45;;;3.40;99.90;;;;;;4943257;29;20408;-82
2022/01/09 07:55:26;;;;;;;4.05;1.75;;;3.40;99.90;;;;;;4942817;29;20049;-83
2022/01/09 07:57:52;;;;;;;4.22;2.47;;;3.50;99.90;;;;;;4942103;28;20019;-82
2022/01/09 08:00:19;;;;;;;3.80;2.05;;;3.40;99.90;;;;;;4941255;28;20106;-83
2022/01/09 08:02:45;;;;;;;2.03;1.33;;;3.40;99.90;;;;;;4942470;29;20032;-82
2022/01/09 08:05:12;;;;;;;3.53;2.97;;;3.40;99.90;;;;;;4942676;28;20028;-82
2022/01/09 08:07:38;;;;;;;3.35;1.63;;;3.50;99.90;;;;;;4942227;28;20551;-82
2022/01/09 08:10:04;;;;;;;;;;;3.50;99.90;;;;;;4942295;28;20488;-82
2022/01/09 08:12:29;;;;;;;1.90;1.25;;;3.50;99.90;;;;;;4941257;28;19910;-83
2022/01/09 08:14:55;;;;;;;2.95;2.65;;;3.50;99.90;;;;;;4940913;28;20083;-82
2022/01/09 08:17:20;;;;;;;3.60;1.52;;;3.40;99.90;;;;;;4942419;29;20196;-82
2022/01/09 08:19:47;;;;;;;;;;;3.50;99.90;;;;;;4942388;28;20476;-83
2022/01/09 08:22:12;;;;;;;2.83;1.75;;;3.50;99.90;;;;;;4941619;29;19921;-83
2022/01/09 08:24:40;;;;;;;6.97;3.50;;;3.50;99.90;;;;;;4942204;28;20019;-82
2022/01/09 08:27:07;;;;;;;2.22;1.67;;;3.40;99.90;;;;;;4941309;28;20043;-83
2022/01/09 08:29:34;;;;;;;2.58;1.60;;;3.40;99.90;;;;;;4942049;28;20055;-82
2022/01/09 08:32:00;;;;;;;5.40;2.80;;;3.50;99.90;;;;;;4940414;28;20050;-82
2022/01/09 08:34:26;;;;;;;2.85;1.88;;;3.40;99.90;;;;;;4941064;29;20023;-83
2022/01/09 08:36:51;;;;;;;;;;;3.50;99.90;;;;;;4939432;28;20114;-82
2022/01/09 08:39:17;;;;;;;3.22;2.08;;;3.50;99.90;;;;;;4940868;28;19997;-82
2022/01/09 08:41:43;;;;;;;3.35;1.88;;;3.50;99.90;;;;;;4941512;28;20041;-82
2022/01/09 08:44:08;;;;;;;6.88;2.17;;;3.50;99.90;;;;;;4940769;28;20567;-83
2022/01/09 08:46:35;;;;;;;1.80;1.00;;;3.60;99.90;;;;;;4941433;28;20024;-83
2022/01/09 08:49:03;;;;;;;1.02;0.65;;;3.60;99.90;;;;;;4941607;29;20066;-85
2022/01/09 08:51:29;;;;;;;1.70;0.90;;;3.70;99.90;;;;;;4942578;28;20372;-85
2022/01/09 08:53:55;;;;;;;7.78;5.38;;;3.70;99.90;;;;;;4940880;28;20046;-84
2022/01/09 08:56:23;;;;;;;4.43;2.58;;;3.70;99.90;;;;;;4941405;29;20785;-83
2022/01/09 08:58:50;;;;;;;8.27;5.50;;;3.80;99.90;;;;;;4939961;28;20560;-83
2022/01/09 09:01:16;;;;;;;5.38;3.30;;;3.80;99.90;;;;;;4941719;29;20038;-82
2022/01/09 09:03:42;;;;;;;0.93;0.50;;;3.80;99.90;;;;;;4940918;28;20035;-82
2022/01/09 09:06:10;;;;;;;1.25;0.70;;;3.80;99.90;;;;;;4941534;28;20110;-82
2022/01/09 09:08:36;;;;;;;3.35;1.63;;;3.80;99.90;;;;;;4941264;28;20035;-82
2022/01/09 09:11:01;;;;;;;5.78;1.67;;;3.80;99.90;;;;;;4941784;28;20038;-83
2022/01/09 09:13:27;;;;;;;0.98;0.63;;;3.80;99.90;;;;;;4939888;28;20023;-82
2022/01/09 09:15:53;;;;;;;1.85;0.43;;;3.80;99.90;;;;;;4940841;28;20062;-83
2022/01/09 09:18:18;;;;;;;2.13;1.20;;;3.80;99.90;;;;;;4941170;28;20117;-82
2022/01/09 09:20:44;;;;;;;0.95;0.63;;;3.80;99.90;;;;;;4940984;28;20514;-82
2022/01/09 09:23:10;;;;;;;2.60;1.20;;;3.80;99.90;;;;;;4940758;29;20086;-82
2022/01/09 09:25:35;;;;;;;0.88;0.43;;;3.90;99.90;;;;;;4939548;29;20031;-83
2022/01/09 09:28:01;;;;;;;3.00;0.88;;;3.90;99.90;;;;;;4938407;28;20078;-82
2022/01/09 09:30:27;;;;;;;;;;;3.90;99.90;;;;;;4941153;29;20038;-82
2022/01/09 09:32:52;;;;;;;1.42;0.57;;;3.80;99.90;;;;;;4940571;29;19919;-83
2022/01/09 09:35:18;;;;;;;1.23;0.70;;;3.80;99.90;;;;;;4941093;29;20103;-82
2022/01/09 09:37:43;;;;;;;0.68;0.50;;;3.80;99.90;;;;;;4940590;28;20027;-83
2022/01/09 09:40:09;;;;;;;0.70;0.40;;;3.80;99.90;;;;;;4940585;28;20066;-82
2022/01/09 09:42:35;;;;;;;;;;;3.80;99.90;;;;;;4940340;29;20083;-83
2022/01/09 09:45:04;;;;;;;2.13;1.08;;;3.70;99.90;;;;;;4940158;28;19914;-83
2022/01/09 09:47:29;;;;;;;3.78;0.50;;;3.80;99.90;;;;;;4941572;29;20088;-83
2022/01/09 09:49:55;;;;;;;2.33;0.85;;;3.80;99.90;;;;;;4940238;28;20156;-84
2022/01/09 09:52:20;;;;;;;1.67;0.55;;;3.70;99.90;;;;;;4939034;29;20388;-83
2022/01/09 09:54:52;;;;;;;3.53;1.00;;;3.70;99.90;;;;;;4939184;28;20031;-83
2022/01/09 09:57:18;;;;;;;0.82;0.70;;;3.70;99.90;;;;;;4940449;29;20074;-84
2022/01/09 09:59:44;;;;;;;2.55;0.50;;;3.70;99.90;;;;;;4939021;28;20038;-84
2022/01/09 10:02:15;;;;;;;3.05;0.90;;;3.60;99.90;;;;;;4939838;28;20020;-84
2022/01/09 10:04:57;;;;;;;1.52;0.80;;;3.60;99.90;;;;;;4940345;29;20027;-84
2022/01/09 10:07:23;;;;;;;3.13;0.60;;;3.60;99.90;;;;;;4947252;28;20503;-84
2022/01/09 10:10:02;;;;;;;0.65;0.63;;;3.60;99.90;;;;;;4938815;29;20039;-84
2022/01/09 10:12:30;;;;;;;1.33;0.75;;;3.60;99.90;;;;;;4939912;29;20400;-84
2022/01/09 10:14:59;;;;;;;1.63;0.80;;;3.60;99.90;;;;;;4940848;28;20388;-84
2022/01/09 10:17:25;;;;;;;1.27;0.40;;;3.50;99.90;;;;;;4940192;28;20043;-84
2022/01/09 10:19:55;;;;;;;1.58;0.70;;;3.50;99.90;;;;;;4945993;28;20027;-84
2022/01/09 10:22:27;;;;;;;0.60;0.60;;;3.50;99.90;;;;;;4941163;29;20206;-84
2022/01/09 10:24:53;;;;;;;0.65;0.40;;;3.50;99.90;;;;;;4941181;28;20096;-84
2022/01/09 10:27:36;;;;;;;;;;;3.40;99.90;;;;;;4940721;28;20046;-84
2022/01/09 10:30:04;;;;;;;1.60;0.63;;;3.40;99.90;;;;;;4939200;29;19922;-85
2022/01/09 10:32:31;;;;;;;2.10;0.50;;;3.30;99.90;;;;;;4941032;29;20285;-84
2022/01/09 10:35:27;;;;;;;1.58;0.68;;;3.30;99.90;;;;;;4940409;28;20105;-84
2022/01/09 10:38:03;;;;;;;1.48;0.43;;;3.30;99.90;;;;;;4933276;29;20040;-84
2022/01/09 10:40:30;;;;;;;1.48;0.60;;;3.30;99.90;;;;;;4940561;29;20118;-84
2022/01/09 10:43:09;;;;;;;0.85;0.60;;;3.30;99.90;;;;;;4938678;29;20043;-84
2022/01/09 10:45:39;;;;;;;2.25;0.80;;;3.30;99.90;;;;;;4939298;29;20028;-84
2022/01/09 10:48:09;;;;;;;1.13;0.70;;;3.30;99.90;;;;;;4939880;29;20063;-84
2022/01/09 10:50:37;;;;;;;4.78;1.50;;;3.40;99.90;;;;;;4940203;29;20032;-84
2022/01/09 10:53:20;;;;;;;3.10;0.85;;;3.40;99.90;;;;;;4940376;29;20032;-84
2022/01/09 10:55:59;;;;;;;1.63;0.80;;;3.40;99.90;;;;;;4940257;29;20024;-83
2022/01/09 10:58:25;;;;;;;1.63;0.80;;;3.50;99.90;;;;;;4939230;28;20023;-83
2022/01/09 11:01:06;;;;;;;1.42;0.70;;;3.50;99.90;;;;;;4938667;28;20031;-83
2022/01/09 11:03:31;;;;;;;0.70;0.68;;;3.60;99.90;;;;;;4940237;29;20035;-83
2022/01/09 11:06:00;;;;;;;1.30;0.73;;;3.60;99.90;;;;;;4940519;28;20036;-83
2022/01/09 11:08:26;;;;;;;1.63;1.13;;;3.60;99.90;;;;;;4944177;29;20464;-84
2022/01/09 11:10:52;;;;;;;1.92;0.85;;;3.60;99.90;;;;;;4944441;29;20046;-84
2022/01/09 11:13:18;;;;;;;2.60;1.00;;;3.70;99.90;;;;;;4942833;29;20056;-83
2022/01/09 11:16:32;;;;;;;2.85;0.80;;;3.70;99.90;;;;;;4942912;28;20311;-83
2022/01/09 11:18:31;;;;;;;2.13;1.00;;;3.70;99.90;;;;;;4941452;28;20036;-83
2022/01/09 11:20:57;;;;;;;1.98;0.93;;;3.80;99.90;;;;;;4942543;28;20114;-83
2022/01/09 11:23:28;;;;;;;1.38;0.95;;;3.80;99.90;;;;;;4944049;28;20178;-83
2022/01/09 11:25:58;;;;;;;2.47;0.70;;;3.80;99.90;;;;;;4964640;28;20040;-83
2022/01/09 11:28:25;;;;;;;1.80;0.52;;;3.80;99.90;;;;;;4941912;29;20038;-83
2022/01/09 11:31:01;;;;;;;1.42;0.60;;;3.80;99.90;;;;;;4958476;28;20035;-82
2022/01/09 11:34:08;;;;;;;2.85;1.40;;;3.80;99.90;;;;;;4943617;29;20043;-84
2022/01/09 11:36:41;;;;;;;1.95;0.93;;;3.80;99.90;;;;;;4943169;28;20023;-85
2022/01/09 11:39:24;;;;;;;5.05;1.10;;;3.80;99.90;;;;;;4942744;29;20444;-84
2022/01/09 11:42:11;;;;;;;2.45;1.00;;;3.80;99.90;;;;;;4942697;29;20051;-84
2022/01/09 11:44:56;;;;;;;2.40;1.10;;;3.90;99.90;;;;;;4943645;29;20038;-84
2022/01/09 11:47:25;;;;;;;2.15;1.33;;;3.90;99.90;;;;;;4942271;28;20023;-84
2022/01/09 11:49:53;;;;;;;3.03;1.10;;;3.90;99.90;;;;;;4941523;29;20027;-84
2022/01/09 11:52:24;;;;;;;3.05;0.80;;;3.90;99.90;;;;;;4943311;29;20114;-84
2022/01/09 11:54:51;;;;;;;1.90;0.73;;;3.90;99.90;;;;;;4942699;28;20027;-84
2022/01/09 11:57:46;;;;;;;1.30;0.82;;;3.90;99.90;;;;;;4942605;29;20328;-85
2022/01/09 12:00:41;;;;;;;2.75;0.95;;;3.90;99.90;;;;;;4947443;28;20492;-84
2022/01/09 12:03:25;;;;;;;2.30;0.90;;;4.00;99.90;;;;;;4942276;28;20066;-84
2022/01/09 12:06:11;;;;;;;3.78;1.58;;;4.10;99.90;;;;;;4940902;28;20077;-83
2022/01/09 12:08:57;;;;;;;4.15;1.50;;;4.10;99.90;;;;;;4942089;29;20024;-84
2022/01/09 12:12:05;;;;;;;3.42;1.30;;;4.10;99.90;;;;;;4948385;28;20510;-84
2022/01/09 12:14:56;;;;;;;;;;;4.20;99.90;;;;;;4937733;28;20266;-83
2022/01/09 12:17:21;;;;;;;2.33;1.10;;;4.10;99.90;;;;;;4941520;28;20451;-83
2022/01/09 12:20:05;;;;;;;3.80;1.50;;;4.10;99.90;;;;;;4942385;28;20023;-83
2022/01/09 12:22:43;;;;;;;3.72;1.90;;;4.10;99.90;;;;;;4946826;28;20114;-83
2022/01/09 12:25:30;;;;;;;6.20;2.58;;;4.10;99.90;;;;;;4941340;28;20035;-83
2022/01/09 12:28:18;;;;;;;5.10;2.20;;;4.20;99.90;;;;;;4941712;28;20215;-83
2022/01/09 12:31:00;;;;;;;5.80;1.98;;;4.30;99.90;;;;;;4942276;29;20023;-82
2022/01/09 12:33:25;;;;;;;5.72;2.85;;;4.30;99.90;;;;;;4942258;28;20041;-83
2022/01/09 12:35:58;;;;;;;6.78;2.70;;;4.40;99.90;;;;;;4941701;29;20043;-82
2022/01/09 12:38:28;;;;;;;5.55;2.95;;;4.50;99.90;;;;;;4941003;29;20047;-82
2022/01/09 12:41:01;;;;;;;4.68;2.13;;;4.50;99.90;;;;;;4941132;29;20336;-83
2022/01/09 12:43:28;;;;;;;10.05;2.15;;;4.60;99.90;;;;;;4941587;28;20099;-86
2022/01/09 12:45:54;;;;;;;11.68;2.78;;;4.60;99.90;;;;;;4941408;29;20039;-85
2022/01/09 12:48:29;;;;;;;9.15;2.60;;;4.70;99.90;;;;;;4941457;28;20057;-85
2022/01/09 12:51:05;;;;;;;11.00;2.75;;;4.80;99.90;;;;;;4941728;29;20107;-84
2022/01/09 12:53:46;;;;;;;12.82;1.92;;;4.80;99.90;;;;;;4942783;29;20184;-85
2022/01/09 12:56:20;;;;;;;8.93;3.92;;;4.90;99.90;;;;;;4940849;28;20036;-84
2022/01/09 13:00:41;;;;;;;6.63;2.45;;;5.00;99.90;;;;;;5062185;28;20321;-60
2022/01/09 13:03:07;;;;;;;12.00;2.33;;;5.10;99.90;;;;;;5062288;28;20474;-61
2022/01/09 13:05:33;;;;;;;8.93;2.63;;;5.10;99.90;;;;;;5062815;28;20033;-60